createdAt,value
2019-04-20T00:02:30.005Z,6.07
2019-04-20T00:04:59.092Z,10.13
2019-04-20T00:07:32.392Z,9.27
2019-04-20T00:10:05.387Z,8.13
2019-04-20T00:12:36.788Z,10.20
2019-04-20T00:14:58.647Z,10.13
2019-04-20T00:17:28.612Z,8.00
2019-04-20T00:19:57.871Z,9.03
2019-04-20T00:22:45.910Z,10.60
2019-04-20T00:25:17.627Z,12.67
2019-04-20T00:28:21.069Z,10.43
2019-04-20T00:30:50.453Z,16.53
2019-04-20T00:33:10.807Z,14.03
2019-04-20T00:35:31.819Z,9.90
2019-04-20T00:38:01.261Z,10.80
2019-04-20T00:40:30.641Z,9.33
2019-04-20T00:43:01.390Z,14.80
2019-04-20T00:45:34.763Z,9.33
2019-04-20T00:48:05.706Z,8.63
2019-04-20T00:50:44.573Z,11.07
2019-04-20T00:53:11.394Z,8.17
2019-04-20T00:55:31.824Z,10.13
2019-04-20T00:58:15.312Z,8.53
2019-04-20T01:00:54.235Z,10.10
2019-04-20T01:03:14.478Z,10.73
2019-04-20T01:05:53.627Z,11.23
2019-04-20T01:08:21.246Z,10.33
2019-04-20T01:10:54.096Z,9.30
2019-04-20T01:13:23.357Z,13.33
2019-04-20T01:15:55.154Z,11.23
2019-04-20T01:18:20.368Z,10.63
2019-04-20T01:20:49.389Z,8.80
2019-04-20T01:23:22.349Z,9.43
2019-04-20T01:25:55.807Z,10.60
2019-04-20T01:28:35.841Z,11.70
2019-04-20T01:31:03.743Z,9.63
2019-04-20T01:33:31.813Z,10.07
2019-04-20T01:36:02.815Z,9.77
2019-04-20T01:38:34.353Z,8.60
2019-04-20T01:40:50.317Z,11.97
2019-04-20T01:43:19.007Z,8.57
2019-04-20T01:45:49.020Z,8.97
2019-04-20T01:48:22.032Z,11.70
2019-04-20T01:50:54.913Z,10.13
2019-04-20T01:53:32.408Z,13.40
2019-04-20T01:56:07.239Z,12.07
2019-04-20T01:58:42.222Z,7.93
2019-04-20T02:00:57.606Z,9.97
2019-04-20T02:03:44.832Z,10.37
2019-04-20T02:06:15.060Z,8.73
2019-04-20T02:08:42.311Z,10.03
2019-04-20T02:11:18.642Z,9.47
2019-04-20T02:13:48.001Z,6.67
2019-04-20T02:16:19.008Z,10.10
2019-04-20T02:19:02.995Z,10.67
2019-04-20T02:21:30.007Z,9.47
2019-04-20T02:23:49.919Z,21.37
2019-04-20T02:26:14.192Z,10.23
2019-04-20T02:29:09.523Z,13.17
2019-04-20T02:31:55.390Z,10.87
2019-04-20T02:34:25.151Z,10.70
2019-04-20T02:37:00.185Z,15.23
2019-04-20T02:39:38.006Z,11.63
2019-04-20T02:47:02.234Z,12.07
2019-04-20T02:57:05.281Z,14.83
2019-04-20T02:59:56.287Z,14.23
2019-04-20T03:01:45.093Z,16.20
2019-04-20T03:04:01.032Z,14.40
2019-04-20T03:06:36.363Z,12.40
2019-04-20T03:09:19.872Z,13.80
2019-04-20T03:11:52.777Z,10.47
2019-04-20T03:14:13.925Z,12.93
2019-04-20T03:16:45.396Z,12.60
2019-04-20T03:19:14.787Z,12.50
2019-04-20T03:21:51.396Z,12.13
2019-04-20T03:24:27.044Z,19.03
2019-04-20T03:26:48.048Z,11.03
2019-04-20T03:29:34.841Z,12.10
2019-04-20T03:34:55.448Z,11.47
2019-04-20T03:37:13.169Z,10.40
2019-04-20T03:39:32.430Z,14.53
2019-04-20T03:41:50.294Z,10.87
2019-04-20T03:44:19.240Z,13.37
2019-04-20T03:46:52.205Z,12.23
2019-04-20T03:49:42.475Z,10.97
2019-04-20T03:52:23.397Z,15.33
2019-04-20T03:54:57.368Z,14.27
2019-04-20T03:57:41.038Z,14.43
2019-04-20T04:00:26.311Z,14.17
2019-04-20T04:03:12.522Z,13.53
2019-04-20T04:05:32.467Z,27.00
2019-04-20T04:07:58.291Z,21.40
2019-04-20T04:10:31.714Z,45.97
2019-04-20T04:13:11.991Z,26.97
2019-04-20T04:15:48.790Z,17.33
2019-04-20T04:18:23.037Z,18.90
2019-04-20T04:20:52.152Z,32.50
2019-04-20T04:23:33.853Z,36.57
2019-04-20T04:26:05.830Z,26.07
2019-04-20T04:28:35.166Z,21.13
2019-04-20T04:31:05.172Z,15.03
2019-04-20T04:36:00.372Z,16.67
2019-04-20T04:38:39.591Z,19.83
2019-04-20T04:43:38.871Z,14.73
2019-04-20T04:45:46.937Z,19.53
2019-04-20T04:48:22.156Z,19.07
2019-04-20T04:50:52.772Z,13.63
2019-04-20T04:53:28.829Z,19.47
2019-04-20T04:55:54.858Z,18.03
2019-04-20T04:58:17.322Z,19.47
2019-04-20T05:00:46.772Z,16.67
2019-04-20T05:03:35.342Z,18.13
2019-04-20T05:06:06.555Z,13.97
2019-04-20T05:08:24.066Z,24.07
2019-04-20T05:10:48.336Z,36.13
2019-04-20T05:13:17.779Z,29.67
2019-04-20T05:16:01.350Z,27.03
2019-04-20T05:18:41.788Z,20.97
2019-04-20T05:21:12.996Z,17.60
2019-04-20T05:23:35.455Z,23.53
2019-04-20T05:26:22.684Z,15.23
2019-04-20T05:28:47.251Z,15.77
2019-04-20T05:31:06.887Z,19.33
2019-04-20T05:34:03.608Z,16.43
2019-04-20T05:36:23.313Z,14.77
2019-04-20T05:38:57.254Z,17.70
2019-04-20T05:41:21.870Z,14.27
2019-04-20T05:43:54.503Z,15.33
2019-04-20T05:46:26.459Z,12.70
2019-04-20T05:48:57.654Z,19.73
2019-04-20T05:51:31.599Z,16.67
2019-04-20T05:53:58.767Z,14.27
2019-04-20T05:56:34.061Z,19.40
2019-04-20T05:58:58.006Z,10.60
2019-04-20T06:01:34.428Z,15.20
2019-04-20T06:03:59.384Z,14.27
2019-04-20T06:06:34.597Z,10.93
2019-04-20T06:09:05.269Z,12.33
2019-04-20T06:11:34.698Z,19.17
2019-04-20T06:13:50.541Z,10.73
2019-04-20T06:16:45.215Z,15.60
2019-04-20T06:19:24.366Z,11.30
2019-04-20T06:21:41.471Z,13.90
2019-04-20T06:24:20.686Z,16.73
2019-04-20T06:26:53.575Z,11.00
2019-04-20T06:29:13.703Z,12.73
2019-04-20T06:31:45.928Z,12.27
2019-04-20T06:34:30.240Z,14.53
2019-04-20T06:36:54.254Z,23.43
2019-04-20T06:47:04.185Z,10.97
2019-04-20T06:52:23.692Z,12.33
2019-04-20T06:55:02.748Z,13.53
2019-04-20T06:57:35.706Z,18.67
2019-04-20T07:00:10.321Z,12.57
2019-04-20T07:02:53.094Z,11.93
2019-04-20T07:05:10.047Z,13.37
2019-04-20T07:07:36.044Z,13.83
2019-04-20T07:10:16.336Z,12.23
2019-04-20T07:12:32.748Z,16.17
2019-04-20T07:14:55.697Z,18.37
2019-04-20T07:17:45.631Z,13.90
2019-04-20T07:20:27.855Z,16.43
2019-04-20T07:23:03.560Z,16.63
2019-04-20T07:25:34.250Z,14.83
2019-04-20T07:27:58.251Z,17.37
2019-04-20T07:30:29.949Z,17.73
2019-04-20T07:32:59.931Z,17.93
2019-04-20T07:35:31.888Z,18.07
2019-04-20T07:38:18.192Z,18.63
2019-04-20T07:40:28.721Z,27.67
2019-04-20T07:42:59.194Z,28.67
2019-04-20T07:45:32.071Z,22.60
2019-04-20T07:48:13.567Z,21.80
2019-04-20T07:50:26.225Z,20.67
2019-04-20T07:52:53.343Z,24.57
2019-04-20T07:55:49.423Z,26.70
2019-04-20T07:57:53.731Z,25.60
2019-04-20T08:00:44.950Z,24.63
2019-04-20T08:03:28.431Z,32.93
2019-04-20T08:06:01.458Z,20.00
2019-04-20T08:08:35.229Z,16.63
2019-04-20T08:11:07.424Z,16.20
2019-04-20T08:13:49.352Z,17.00
2019-04-20T08:16:14.974Z,14.60
2019-04-20T08:18:47.257Z,16.23
2019-04-20T08:21:09.634Z,21.30
2019-04-20T08:23:42.944Z,17.93
2019-04-20T08:26:01.804Z,19.50
2019-04-20T08:28:36.065Z,17.00
2019-04-20T08:31:31.230Z,23.40
2019-04-20T08:34:26.478Z,15.93
2019-04-20T08:36:51.426Z,15.50
2019-04-20T08:41:56.417Z,20.33
2019-04-20T08:44:51.809Z,15.97
2019-04-20T08:47:06.155Z,16.77
2019-04-20T08:49:29.757Z,14.87
2019-04-20T08:52:06.078Z,20.37
2019-04-20T08:54:22.062Z,14.90
2019-04-20T08:56:43.986Z,18.97
2019-04-20T08:59:04.739Z,13.93
2019-04-20T09:01:35.838Z,17.50
2019-04-20T09:04:09.823Z,16.50
2019-04-20T09:06:47.832Z,14.47
2019-04-20T09:09:33.183Z,17.93
2019-04-20T09:11:54.311Z,17.33
2019-04-20T09:14:21.310Z,17.77
2019-04-20T09:16:57.052Z,18.73
2019-04-20T09:19:30.839Z,15.93
2019-04-20T09:22:22.959Z,15.10
2019-04-20T09:25:04.175Z,14.53
2019-04-20T09:27:21.739Z,15.77
2019-04-20T09:29:59.422Z,19.03
2019-04-20T09:32:31.245Z,16.23
2019-04-20T09:34:59.747Z,13.57
2019-04-20T09:37:29.582Z,12.70
2019-04-20T09:40:11.000Z,13.47
2019-04-20T09:42:21.519Z,14.73
2019-04-20T09:44:54.337Z,12.67
2019-04-20T09:47:27.477Z,16.47
2019-04-20T09:50:00.855Z,16.50
2019-04-20T09:52:31.234Z,15.53
2019-04-20T09:55:02.936Z,16.23
2019-04-20T09:57:37.962Z,16.53
2019-04-20T10:00:05.364Z,15.47
2019-04-20T10:02:25.015Z,13.83
2019-04-20T10:04:51.569Z,17.77
2019-04-20T10:07:24.255Z,16.10
2019-04-20T10:09:51.636Z,13.73
2019-04-20T10:12:21.741Z,13.80
2019-04-20T10:14:50.936Z,12.87
2019-04-20T10:17:20.245Z,11.80
2019-04-20T10:19:48.799Z,14.80
2019-04-20T10:22:18.411Z,11.90
2019-04-20T10:24:50.034Z,10.00
2019-04-20T10:27:17.108Z,5.07
2019-04-20T10:29:45.856Z,9.23
2019-04-20T10:32:16.131Z,8.50
2019-04-20T10:34:44.573Z,11.97
2019-04-20T10:37:15.624Z,13.47
2019-04-20T10:39:44.666Z,13.07
2019-04-20T10:42:14.243Z,13.33
2019-04-20T10:44:43.500Z,8.83
2019-04-20T10:47:11.924Z,11.23
2019-04-20T10:49:40.894Z,11.20
2019-04-20T10:52:09.765Z,10.37
2019-04-20T10:54:38.518Z,9.03
2019-04-20T10:57:07.873Z,8.80
2019-04-20T10:59:37.267Z,10.37
2019-04-20T11:02:05.798Z,10.83
2019-04-20T11:04:34.600Z,7.47
2019-04-20T11:07:03.113Z,9.77
2019-04-20T11:09:32.461Z,8.53
2019-04-20T11:12:02.218Z,7.53
2019-04-20T11:14:34.592Z,6.90
2019-04-20T11:17:02.423Z,8.53
2019-04-20T11:19:31.584Z,8.40
2019-04-20T11:22:00.133Z,8.65
2019-04-20T11:24:28.552Z,9.00
2019-04-20T11:26:58.210Z,7.30
2019-04-20T11:29:26.833Z,8.43
2019-04-20T11:31:56.468Z,11.33
2019-04-20T11:34:31.617Z,11.05
2019-04-20T11:36:57.152Z,9.28
2019-04-20T11:39:26.928Z,10.32
2019-04-20T11:41:55.923Z,10.48
2019-04-20T11:44:26.855Z,10.28
2019-04-20T11:46:54.586Z,8.75
2019-04-20T11:49:23.657Z,11.33
2019-04-20T11:51:52.172Z,11.83
2019-04-20T11:54:22.005Z,8.33
2019-04-20T11:56:51.199Z,11.85
2019-04-20T11:59:21.020Z,9.23
2019-04-20T12:01:57.494Z,9.20
2019-04-20T12:04:37.323Z,8.90
2019-04-20T12:06:57.058Z,10.08
2019-04-20T12:09:26.296Z,7.85
2019-04-20T12:12:06.995Z,10.43
2019-04-20T12:14:24.981Z,9.93
2019-04-20T12:16:53.514Z,9.33
2019-04-20T12:19:22.903Z,12.47
2019-04-20T12:21:51.691Z,11.93
2019-04-20T12:24:20.437Z,8.45
2019-04-20T12:26:49.010Z,8.70
2019-04-20T12:29:17.480Z,11.60
2019-04-20T12:31:52.217Z,9.80
2019-04-20T12:34:16.242Z,10.65
2019-04-20T12:36:44.912Z,10.88
2019-04-20T12:39:15.025Z,11.20
2019-04-20T12:41:50.416Z,11.30
2019-04-20T12:44:14.216Z,12.43
2019-04-20T12:46:43.765Z,10.60
2019-04-20T12:49:13.581Z,12.05
2019-04-20T12:51:51.961Z,7.70
2019-04-20T12:54:12.504Z,11.85
2019-04-20T12:56:42.426Z,12.37
2019-04-20T12:59:11.620Z,8.48
2019-04-20T13:01:41.442Z,9.00
2019-04-20T13:04:09.957Z,8.85
2019-04-20T13:06:39.189Z,10.95
2019-04-20T13:09:10.965Z,10.08
2019-04-20T13:11:51.673Z,10.18
2019-04-20T13:14:24.752Z,8.03
2019-04-20T13:16:53.973Z,9.60
2019-04-20T13:19:23.567Z,8.25
2019-04-20T13:21:52.777Z,13.75
2019-04-20T13:24:21.248Z,9.43
2019-04-20T13:26:50.927Z,10.98
2019-04-20T13:29:19.455Z,10.25
2019-04-20T13:31:50.131Z,9.38
2019-04-20T13:34:18.076Z,11.97
2019-04-20T13:36:46.540Z,8.13
2019-04-20T13:39:16.420Z,11.83
2019-04-20T13:41:58.747Z,11.55
2019-04-20T13:44:17.999Z,8.00
2019-04-20T13:46:47.104Z,11.63
2019-04-20T13:49:15.640Z,7.80
2019-04-20T13:51:44.609Z,9.63
2019-04-20T13:54:18.023Z,7.83
2019-04-20T13:56:45.894Z,11.55
2019-04-20T13:59:25.828Z,10.03
2019-04-20T14:02:08.852Z,7.00
2019-04-20T14:04:39.091Z,8.50
2019-04-20T14:07:07.535Z,10.33
2019-04-20T14:09:37.246Z,8.53
2019-04-20T14:12:20.091Z,8.97
2019-04-20T14:14:37.218Z,8.33
2019-04-20T14:17:07.420Z,8.30
2019-04-20T14:19:36.911Z,9.97
2019-04-20T14:22:06.127Z,10.00
2019-04-20T14:24:35.018Z,10.83
2019-04-20T14:27:03.563Z,9.00
2019-04-20T14:29:32.753Z,8.67
2019-04-20T14:32:03.518Z,11.00
2019-04-20T14:34:31.490Z,9.70
2019-04-20T14:37:00.271Z,10.93
2019-04-20T14:39:30.120Z,11.17
2019-04-20T14:42:00.149Z,6.93
2019-04-20T14:44:29.908Z,8.10
2019-04-20T14:46:58.419Z,7.27
2019-04-20T14:49:26.852Z,7.63
2019-04-20T14:51:57.534Z,7.70
2019-04-20T14:54:25.599Z,9.50
2019-04-20T14:56:54.109Z,9.43
2019-04-20T14:59:27.473Z,8.00
2019-04-20T15:01:58.681Z,9.77
2019-04-20T15:04:29.060Z,8.93
2019-04-20T15:06:58.075Z,10.17
2019-04-20T15:09:26.757Z,7.83
2019-04-20T15:11:55.263Z,10.17
2019-04-20T15:14:24.852Z,6.97
2019-04-20T15:16:53.422Z,9.20
2019-04-20T15:19:23.600Z,11.47
2019-04-20T15:21:57.628Z,8.90
2019-04-20T15:24:27.366Z,7.13
2019-04-20T15:26:56.458Z,6.63
2019-04-20T15:29:26.329Z,8.83
2019-04-20T15:31:56.555Z,9.00
2019-04-20T15:34:25.088Z,6.23
2019-04-20T15:36:54.052Z,9.67
2019-04-20T15:39:23.251Z,7.87
2019-04-20T15:41:51.797Z,8.03
2019-04-20T15:44:21.517Z,7.10
2019-04-20T15:46:51.049Z,6.53
2019-04-20T15:49:19.907Z,13.10
2019-04-20T15:51:48.468Z,12.57
2019-04-20T15:54:19.646Z,11.23
2019-04-20T15:56:56.123Z,8.57
2019-04-20T15:59:18.477Z,5.90
2019-04-20T16:01:49.268Z,11.00
2019-04-20T16:04:39.440Z,12.33
2019-04-20T16:07:05.749Z,9.23
2019-04-20T16:09:34.191Z,7.40
2019-04-20T16:12:02.722Z,6.70
2019-04-20T16:14:31.340Z,9.63
2019-04-20T16:17:02.322Z,12.43
2019-04-20T16:19:40.838Z,12.87
2019-04-20T16:22:01.718Z,12.07
2019-04-20T16:24:35.774Z,7.77
2019-04-20T16:27:11.773Z,7.17
2019-04-20T16:29:41.742Z,7.70
2019-04-20T16:32:10.384Z,7.83
2019-04-20T16:34:40.213Z,7.67
2019-04-20T16:37:08.855Z,7.90
2019-04-20T16:39:38.565Z,8.43
2019-04-20T16:42:08.825Z,8.50
2019-04-20T16:44:37.307Z,7.80
2019-04-20T16:47:06.107Z,7.73
2019-04-20T16:49:34.896Z,5.43
2019-04-20T16:52:03.429Z,6.13
2019-04-20T16:54:32.088Z,7.33
2019-04-20T16:57:00.699Z,7.03
2019-04-20T16:59:33.559Z,5.60
2019-04-20T17:02:00.374Z,9.17
2019-04-20T17:04:30.376Z,6.73
2019-04-20T17:07:16.523Z,10.20
2019-04-20T17:09:47.465Z,10.00
2019-04-20T17:12:15.932Z,7.20
2019-04-20T17:14:45.674Z,8.70
2019-04-20T17:17:15.702Z,14.00
2019-04-20T17:19:44.355Z,7.93
2019-04-20T17:22:13.860Z,8.77
2019-04-20T17:24:43.131Z,8.67
2019-04-20T17:27:17.020Z,6.37
2019-04-20T17:29:59.055Z,6.63
2019-04-20T17:32:29.605Z,11.07
2019-04-20T17:35:13.545Z,9.47
2019-04-20T17:37:32.862Z,10.13
2019-04-20T17:40:19.238Z,8.73
2019-04-20T17:42:40.086Z,9.23
2019-04-20T17:45:07.946Z,7.97
2019-04-20T17:47:47.138Z,9.17
2019-04-20T17:50:17.209Z,8.30
2019-04-20T17:52:49.568Z,9.50
2019-04-20T17:55:17.030Z,8.63
2019-04-20T17:57:35.249Z,5.70
2019-04-20T18:00:19.517Z,5.13
2019-04-20T18:03:08.462Z,7.23
2019-04-20T18:05:51.432Z,6.93
2019-04-20T18:08:23.470Z,9.73
2019-04-20T18:10:41.433Z,7.53
2019-04-20T18:13:09.380Z,7.23
2019-04-20T18:15:46.553Z,7.90
2019-04-20T18:18:33.651Z,13.23
2019-04-20T18:20:50.609Z,8.00
2019-04-20T18:23:25.464Z,10.40
2019-04-20T18:26:17.086Z,8.97
2019-04-20T18:28:32.563Z,10.53
2019-04-20T18:31:01.018Z,7.83
2019-04-20T18:33:33.015Z,8.57
2019-04-20T18:36:00.338Z,10.73
2019-04-20T18:38:30.573Z,10.17
2019-04-20T18:41:05.601Z,12.37
2019-04-20T18:43:30.981Z,13.23
2019-04-20T18:46:17.152Z,12.60
2019-04-20T18:48:51.188Z,12.13
2019-04-20T18:50:59.969Z,9.77
2019-04-20T18:53:34.230Z,12.23
2019-04-20T18:56:00.835Z,13.67
2019-04-20T18:58:28.975Z,12.83
2019-04-20T19:00:58.991Z,17.97
2019-04-20T19:03:33.684Z,9.47
2019-04-20T19:05:57.975Z,9.83
2019-04-20T19:08:33.897Z,10.43
2019-04-20T19:11:04.070Z,9.50
2019-04-20T19:13:44.123Z,14.20
2019-04-20T19:16:23.002Z,9.10
2019-04-20T19:19:00.586Z,11.37
2019-04-20T19:21:17.231Z,13.70
2019-04-20T19:23:54.868Z,12.70
2019-04-20T19:26:21.066Z,12.43
2019-04-20T19:28:52.755Z,12.17
2019-04-20T19:31:36.810Z,11.37
2019-04-20T19:34:09.522Z,11.53
2019-04-20T19:36:27.990Z,10.03
2019-04-20T19:39:01.357Z,15.53
2019-04-20T19:41:30.258Z,18.10
2019-04-20T19:44:02.511Z,11.53
2019-04-20T19:46:46.243Z,13.33
2019-04-20T19:48:56.669Z,16.57
2019-04-20T19:51:40.849Z,11.43
2019-04-20T19:54:15.270Z,11.03
2019-04-20T19:56:38.550Z,8.17
2019-04-20T19:59:02.774Z,14.03
2019-04-20T20:01:19.899Z,11.30
2019-04-20T20:03:57.545Z,13.07
2019-04-20T20:06:28.181Z,12.37
2019-04-20T20:08:55.726Z,14.90
2019-04-20T20:11:29.830Z,10.20
2019-04-20T20:13:53.244Z,11.15
2019-04-20T20:16:29.141Z,12.60
2019-04-20T20:19:01.427Z,13.87
2019-04-20T20:21:27.274Z,18.23
2019-04-20T20:23:50.197Z,15.20
2019-04-20T20:26:24.955Z,15.63
2019-04-20T20:29:04.611Z,16.70
2019-04-20T20:31:29.766Z,15.77
2019-04-20T20:34:04.161Z,13.43
2019-04-20T20:36:23.508Z,13.57
2019-04-20T20:38:52.408Z,16.53
2019-04-20T20:41:26.282Z,15.57
2019-04-20T20:44:01.134Z,13.43
2019-04-20T20:46:30.732Z,15.17
2019-04-20T20:49:21.716Z,18.07
2019-04-20T20:51:44.049Z,16.13
2019-04-20T20:53:59.913Z,23.07
2019-04-20T20:56:27.718Z,16.77
2019-04-20T20:59:01.816Z,25.20
2019-04-20T21:01:25.355Z,23.00
2019-04-20T21:03:53.107Z,26.30
2019-04-20T21:06:22.413Z,23.80
2019-04-20T21:08:53.787Z,31.43
2019-04-20T21:11:26.203Z,28.13
2019-04-20T21:13:52.828Z,46.23
2019-04-20T21:16:27.613Z,53.83
2019-04-20T21:19:10.691Z,47.90
2019-04-20T21:21:38.484Z,57.73
2019-04-20T21:24:00.422Z,45.53
2019-04-20T21:26:30.494Z,45.77
2019-04-20T21:28:55.507Z,39.43
2019-04-20T21:31:27.488Z,44.67
2019-04-20T21:33:55.214Z,48.47
2019-04-20T21:36:27.910Z,46.73
2019-04-20T21:38:53.965Z,38.37
2019-04-20T21:41:25.390Z,42.73
2019-04-20T21:43:53.860Z,43.97
2019-04-20T21:46:22.834Z,47.13
2019-04-20T21:49:01.698Z,48.57
2019-04-20T21:51:32.109Z,49.97
2019-04-20T21:53:54.862Z,48.50
2019-04-20T21:56:22.001Z,58.53
2019-04-20T21:58:55.349Z,58.43
2019-04-20T22:01:30.497Z,60.77
2019-04-20T22:03:52.351Z,52.60
2019-04-20T22:06:22.349Z,52.77
2019-04-20T22:08:56.763Z,51.57
2019-04-20T22:11:21.917Z,48.77
2019-04-20T22:13:51.699Z,53.70
2019-04-20T22:16:22.665Z,56.70
2019-04-20T22:18:58.274Z,52.13
2019-04-20T22:21:26.578Z,54.33
2019-04-20T22:24:05.667Z,58.90
2019-04-20T22:26:30.983Z,55.87
2019-04-20T22:28:52.182Z,57.67
2019-04-20T22:31:22.145Z,54.13
2019-04-20T22:33:52.235Z,50.83
2019-04-20T22:36:24.837Z,54.03
2019-04-20T22:39:11.775Z,50.10
2019-04-20T22:41:45.742Z,49.33
2019-04-20T22:44:18.432Z,47.90
2019-04-20T22:46:45.458Z,45.27
2019-04-20T22:49:33.725Z,49.00
2019-04-20T22:51:53.199Z,47.90
2019-04-20T22:54:31.252Z,40.53
2019-04-20T22:56:57.307Z,42.00
2019-04-20T22:59:20.327Z,42.83
2019-04-20T23:01:51.498Z,39.87
2019-04-20T23:04:16.907Z,35.90
2019-04-20T23:06:49.790Z,39.23
2019-04-20T23:09:16.870Z,32.90
2019-04-20T23:11:45.425Z,32.33
2019-04-20T23:14:14.366Z,41.83
2019-04-20T23:16:47.178Z,40.73
2019-04-20T23:19:14.207Z,35.67
2019-04-20T23:21:48.640Z,33.27
2019-04-20T23:24:14.887Z,35.47
2019-04-20T23:26:45.574Z,34.50
2019-04-20T23:29:13.437Z,33.17
2019-04-20T23:31:51.173Z,31.27
2019-04-20T23:34:17.520Z,43.43
2019-04-20T23:36:45.806Z,37.63
2019-04-20T23:39:13.067Z,33.60
2019-04-20T23:41:49.902Z,33.67
2019-04-20T23:44:19.158Z,29.20
2019-04-20T23:46:59.434Z,34.97
2019-04-20T23:49:31.764Z,25.70
2019-04-20T23:52:21.495Z,23.90
2019-04-20T23:54:31.429Z,24.30
2019-04-20T23:56:57.734Z,31.23
2019-04-20T23:59:32.532Z,27.60
